createdAt,value
2023-05-20T00:00:54.899Z,14.70
2023-05-20T00:03:22.253Z,14.70
2023-05-20T00:05:49.567Z,14.70
2023-05-20T00:08:18.886Z,14.60
2023-05-20T00:10:46.024Z,14.60
2023-05-20T00:13:12.981Z,14.70
2023-05-20T00:15:40.264Z,14.70
2023-05-20T00:18:08.547Z,14.50
2023-05-20T00:20:35.544Z,14.50
2023-05-20T00:23:02.836Z,14.40
2023-05-20T00:25:31.918Z,14.40
2023-05-20T00:27:59.172Z,14.40
2023-05-20T00:30:26.600Z,14.40
2023-05-20T00:32:53.747Z,14.30
2023-05-20T00:35:21.247Z,14.30
2023-05-20T00:37:48.401Z,14.30
2023-05-20T00:40:16.190Z,14.20
2023-05-20T00:42:43.837Z,14.20
2023-05-20T00:45:11.468Z,14.20
2023-05-20T00:47:40.044Z,14.20
2023-05-20T00:50:10.233Z,14.20
2023-05-20T00:52:38.418Z,14.20
2023-05-20T00:55:05.716Z,14.10
2023-05-20T00:57:32.737Z,14.10
2023-05-20T00:59:59.929Z,14.30
2023-05-20T01:02:27.322Z,14.10
2023-05-20T01:04:56.890Z,14.10
2023-05-20T01:07:25.477Z,14.00
2023-05-20T01:09:54.245Z,14.00
2023-05-20T01:12:25.956Z,14.00
2023-05-20T01:15:06.406Z,14.00
2023-05-20T01:17:33.731Z,13.90
2023-05-20T01:20:04.400Z,13.90
2023-05-20T01:22:31.483Z,13.90
2023-05-20T01:24:58.494Z,13.90
2023-05-20T01:27:26.527Z,13.80
2023-05-20T01:29:54.290Z,13.80
2023-05-20T01:32:32.198Z,13.80
2023-05-20T01:35:00.864Z,13.80
2023-05-20T01:37:28.722Z,13.70
2023-05-20T01:39:57.175Z,13.70
2023-05-20T01:42:26.930Z,13.70
2023-05-20T01:44:54.273Z,13.70
2023-05-20T01:47:21.411Z,13.80
2023-05-20T01:49:49.510Z,13.60
2023-05-20T01:52:17.035Z,13.60
2023-05-20T01:54:50.873Z,13.60
2023-05-20T01:57:22.917Z,13.60
2023-05-20T01:59:51.429Z,13.60
2023-05-20T02:02:18.742Z,13.60
2023-05-20T02:04:48.521Z,13.60
2023-05-20T02:07:16.480Z,13.60
2023-05-20T02:09:43.563Z,13.60
2023-05-20T02:12:16.311Z,13.60
2023-05-20T02:14:48.221Z,13.70
2023-05-20T02:17:17.351Z,13.70
2023-05-20T02:19:46.064Z,13.70
2023-05-20T02:22:14.080Z,13.70
2023-05-20T02:24:41.535Z,13.80
2023-05-20T02:27:09.278Z,13.80
2023-05-20T02:29:36.974Z,13.90
2023-05-20T02:32:04.612Z,13.90
2023-05-20T02:34:32.972Z,14.00
2023-05-20T02:37:00.133Z,14.00
2023-05-20T02:39:28.491Z,14.00
2023-05-20T02:41:56.329Z,14.10
2023-05-20T02:44:23.449Z,14.10
2023-05-20T02:46:50.548Z,14.10
2023-05-20T02:49:17.513Z,14.20
2023-05-20T02:51:45.055Z,14.30
2023-05-20T02:54:12.164Z,14.30
2023-05-20T02:56:39.331Z,14.30
2023-05-20T02:59:07.192Z,14.40
2023-05-20T03:01:35.922Z,14.40
2023-05-20T03:04:03.724Z,14.50
2023-05-20T03:06:32.009Z,14.50
2023-05-20T03:08:59.465Z,14.50
2023-05-20T03:11:26.584Z,14.70
2023-05-20T03:13:53.757Z,14.70
2023-05-20T03:16:20.973Z,14.60
2023-05-20T03:18:48.315Z,14.60
2023-05-20T03:21:15.488Z,14.70
2023-05-20T03:23:42.557Z,14.70
2023-05-20T03:26:09.642Z,14.70
2023-05-20T03:28:36.795Z,14.70
2023-05-20T03:31:04.505Z,14.70
2023-05-20T03:33:35.188Z,14.80
2023-05-20T03:36:02.937Z,14.80
2023-05-20T03:38:31.053Z,14.80
2023-05-20T03:40:58.194Z,14.90
2023-05-20T03:43:25.602Z,14.90
2023-05-20T03:45:52.770Z,14.90
2023-05-20T03:48:20.382Z,14.90
2023-05-20T03:50:49.505Z,14.90
2023-05-20T03:53:17.542Z,15.00
2023-05-20T03:55:44.675Z,15.00
2023-05-20T03:58:15.251Z,15.00
2023-05-20T04:00:42.790Z,15.00
2023-05-20T04:03:10.494Z,15.10
2023-05-20T04:05:37.704Z,15.10
2023-05-20T04:08:13.811Z,15.10
2023-05-20T04:10:43.953Z,15.10
2023-05-20T04:13:12.128Z,15.10
2023-05-20T04:15:39.456Z,15.10
2023-05-20T04:18:06.738Z,15.20
2023-05-20T04:20:34.338Z,15.20
2023-05-20T04:23:01.873Z,15.40
2023-05-20T04:25:28.930Z,15.30
2023-05-20T04:27:57.629Z,15.50
2023-05-20T04:30:24.938Z,15.30
2023-05-20T04:32:52.145Z,15.40
2023-05-20T04:35:19.720Z,15.30
2023-05-20T04:37:49.103Z,15.40
2023-05-20T04:40:17.084Z,15.50
2023-05-20T04:42:44.836Z,15.40
2023-05-20T04:45:13.533Z,15.50
2023-05-20T04:47:42.032Z,15.50
2023-05-20T04:50:11.102Z,15.50
2023-05-20T04:52:41.899Z,15.60
2023-05-20T04:55:10.657Z,15.60
2023-05-20T04:57:42.612Z,15.60
2023-05-20T05:00:12.292Z,15.60
2023-05-20T05:02:40.326Z,15.70
2023-05-20T05:05:08.099Z,15.70
2023-05-20T05:07:35.765Z,15.70
2023-05-20T05:10:03.227Z,15.80
2023-05-20T05:12:31.830Z,15.80
2023-05-20T05:14:59.571Z,15.80
2023-05-20T05:17:28.968Z,16.00
2023-05-20T05:19:58.858Z,15.90
2023-05-20T05:22:27.967Z,15.90
2023-05-20T05:24:55.754Z,15.90
2023-05-20T05:27:23.129Z,16.00
2023-05-20T05:29:50.642Z,16.00
2023-05-20T05:32:18.519Z,16.00
2023-05-20T05:34:45.674Z,16.00
2023-05-20T05:37:13.032Z,16.10
2023-05-20T05:39:40.209Z,16.10
2023-05-20T05:42:07.171Z,16.10
2023-05-20T05:44:34.873Z,16.10
2023-05-20T05:47:03.495Z,16.20
2023-05-20T05:49:30.687Z,16.20
2023-05-20T05:51:57.720Z,16.60
2023-05-20T05:54:25.426Z,16.30
2023-05-20T05:56:53.812Z,16.40
2023-05-20T05:59:21.484Z,16.40
2023-05-20T06:01:49.039Z,16.50
2023-05-20T06:04:16.569Z,16.50
2023-05-20T06:06:43.756Z,16.60
2023-05-20T06:09:11.016Z,16.60
2023-05-20T06:11:38.243Z,16.90
2023-05-20T06:14:05.303Z,16.70
2023-05-20T06:16:32.478Z,16.80
2023-05-20T06:19:03.448Z,16.80
2023-05-20T06:21:32.895Z,16.90
2023-05-20T06:24:00.193Z,17.00
2023-05-20T06:26:27.414Z,17.00
2023-05-20T06:28:54.453Z,17.10
2023-05-20T06:31:22.342Z,17.00
2023-05-20T06:33:49.781Z,17.20
2023-05-20T06:36:17.911Z,17.20
2023-05-20T06:38:45.070Z,17.20
2023-05-20T06:41:14.508Z,17.20
2023-05-20T06:43:41.683Z,17.30
2023-05-20T06:46:33.870Z,17.30
2023-05-20T06:49:05.922Z,17.40
2023-05-20T06:51:33.269Z,17.40
2023-05-20T06:54:01.810Z,17.40
2023-05-20T06:56:29.287Z,17.50
2023-05-20T06:58:56.259Z,17.50
2023-05-20T07:01:23.473Z,17.70
2023-05-20T07:03:51.405Z,17.70
2023-05-20T07:06:18.893Z,17.80
2023-05-20T07:08:45.909Z,18.00
2023-05-20T07:11:13.472Z,18.00
2023-05-20T07:13:40.827Z,18.10
2023-05-20T07:16:07.969Z,18.20
2023-05-20T07:18:39.129Z,18.30
2023-05-20T07:21:06.361Z,18.40
2023-05-20T07:23:50.342Z,18.40
2023-05-20T07:26:17.308Z,18.60
2023-05-20T07:28:45.641Z,18.50
2023-05-20T07:31:13.007Z,18.60
2023-05-20T07:33:43.932Z,18.60
2023-05-20T07:36:11.556Z,18.70
2023-05-20T07:38:43.006Z,18.70
2023-05-20T07:41:18.875Z,18.80
2023-05-20T07:43:46.488Z,18.90
2023-05-20T07:46:13.678Z,19.00
2023-05-20T07:48:40.901Z,19.00
2023-05-20T07:51:07.911Z,19.10
2023-05-20T07:53:34.999Z,19.20
2023-05-20T07:56:02.068Z,19.30
2023-05-20T07:58:31.957Z,19.40
2023-05-20T08:00:59.245Z,19.50
2023-05-20T08:03:26.938Z,19.70
2023-05-20T08:06:05.156Z,19.70
2023-05-20T08:08:32.322Z,19.90
2023-05-20T08:11:10.781Z,20.10
2023-05-20T08:13:39.814Z,20.20
2023-05-20T08:16:07.320Z,20.40
2023-05-20T08:18:39.123Z,20.50
2023-05-20T08:21:10.160Z,20.60
2023-05-20T08:23:39.554Z,20.80
2023-05-20T08:26:07.998Z,20.90
2023-05-20T08:28:38.147Z,21.20
2023-05-20T08:31:05.747Z,21.20
2023-05-20T08:33:33.403Z,21.40
2023-05-20T08:36:00.912Z,21.50
2023-05-20T08:38:28.989Z,21.60
2023-05-20T08:40:57.536Z,21.80
2023-05-20T08:43:26.008Z,21.90
2023-05-20T08:45:53.467Z,21.90
2023-05-20T08:48:24.691Z,22.00
2023-05-20T08:50:53.278Z,22.00
2023-05-20T08:53:23.075Z,22.10
2023-05-20T08:56:00.919Z,22.10
2023-05-20T08:58:30.142Z,22.00
2023-05-20T09:00:59.040Z,22.00
2023-05-20T09:03:26.404Z,22.00
2023-05-20T09:05:54.403Z,21.80
2023-05-20T09:08:26.865Z,22.00
2023-05-20T09:10:54.565Z,22.10
2023-05-20T09:13:23.698Z,22.30
2023-05-20T09:15:51.324Z,22.10
2023-05-20T09:18:18.575Z,22.10
2023-05-20T09:20:56.968Z,22.10
2023-05-20T09:23:25.752Z,22.10
2023-05-20T09:25:53.470Z,22.10
2023-05-20T09:28:26.773Z,22.00
2023-05-20T09:30:59.822Z,22.10
2023-05-20T09:33:32.006Z,22.10
2023-05-20T09:36:08.820Z,22.10
2023-05-20T09:38:41.616Z,22.10
2023-05-20T09:41:18.311Z,22.20
2023-05-20T09:43:46.161Z,22.20
2023-05-20T09:46:15.002Z,22.20
2023-05-20T09:48:42.153Z,22.30
2023-05-20T09:51:10.204Z,22.40
2023-05-20T09:53:37.411Z,22.40
2023-05-20T09:56:04.897Z,22.40
2023-05-20T09:58:36.214Z,22.40
2023-05-20T10:01:03.493Z,22.40
2023-05-20T10:03:30.754Z,22.50
2023-05-20T10:06:09.967Z,22.50
2023-05-20T10:08:55.145Z,22.60
2023-05-20T10:11:56.795Z,22.80
2023-05-20T10:14:37.121Z,22.70
2023-05-20T10:17:10.954Z,22.80
2023-05-20T10:19:38.371Z,22.90
2023-05-20T10:22:14.427Z,22.90
2023-05-20T10:24:44.072Z,23.00
2023-05-20T10:27:17.218Z,23.10
2023-05-20T10:29:57.231Z,23.10
2023-05-20T10:32:35.008Z,23.20
2023-05-20T10:35:10.172Z,23.30
2023-05-20T10:37:45.997Z,23.60
2023-05-20T10:40:20.311Z,23.80
2023-05-20T10:42:48.226Z,24.10
2023-05-20T10:45:27.748Z,24.30
2023-05-20T10:47:59.583Z,24.40
2023-05-20T10:50:28.376Z,24.50
2023-05-20T10:53:04.300Z,24.60
2023-05-20T10:55:40.674Z,24.60
2023-05-20T10:58:08.082Z,24.60
2023-05-20T11:00:39.631Z,24.60
2023-05-20T11:03:07.508Z,24.60
2023-05-20T11:05:35.733Z,24.60
2023-05-20T11:08:16.919Z,24.80
2023-05-20T11:10:51.711Z,25.00
2023-05-20T11:13:19.014Z,25.30
2023-05-20T11:15:46.222Z,25.50
2023-05-20T11:18:17.061Z,25.60
2023-05-20T11:20:47.569Z,25.70
2023-05-20T11:23:15.482Z,25.80
2023-05-20T11:25:46.608Z,26.00
2023-05-20T11:28:14.951Z,26.30
2023-05-20T11:30:49.259Z,26.50
2023-05-20T11:33:22.091Z,26.80
2023-05-20T11:35:54.517Z,27.10
2023-05-20T11:38:25.878Z,27.20
2023-05-20T11:40:56.926Z,27.30
2023-05-20T11:43:24.877Z,27.20
2023-05-20T11:45:59.377Z,27.30
2023-05-20T11:48:26.792Z,27.30
2023-05-20T11:50:55.725Z,27.40
2023-05-20T11:53:24.610Z,27.40
2023-05-20T11:55:57.975Z,27.40
2023-05-20T11:58:29.408Z,27.60
2023-05-20T12:01:05.228Z,27.90
2023-05-20T12:03:41.227Z,28.00
2023-05-20T12:06:08.403Z,28.20
2023-05-20T12:08:35.466Z,28.30
2023-05-20T12:11:02.525Z,28.50
2023-05-20T12:13:29.549Z,28.80
2023-05-20T12:15:56.641Z,29.10
2023-05-20T12:18:23.709Z,29.50
2023-05-20T12:20:50.939Z,29.90
2023-05-20T12:23:18.226Z,30.40
2023-05-20T12:25:47.437Z,31.00
2023-05-20T12:28:14.584Z,31.70
2023-05-20T12:30:41.728Z,32.30
2023-05-20T12:33:09.235Z,33.00
2023-05-20T12:35:39.922Z,33.60
2023-05-20T12:38:07.441Z,34.10
2023-05-20T12:40:35.825Z,34.50
2023-05-20T12:43:05.414Z,34.90
2023-05-20T12:45:33.112Z,35.40
2023-05-20T12:48:00.475Z,35.80
2023-05-20T12:50:27.929Z,36.30
2023-05-20T12:52:55.050Z,36.80
2023-05-20T12:55:22.321Z,37.20
2023-05-20T12:57:50.556Z,37.60
2023-05-20T13:00:18.299Z,37.90
2023-05-20T13:02:45.753Z,38.30
2023-05-20T13:05:13.511Z,38.60
2023-05-20T13:07:40.937Z,38.70
2023-05-20T13:10:10.342Z,38.80
2023-05-20T13:12:38.214Z,38.60
2023-05-20T13:15:06.095Z,38.50
2023-05-20T13:17:33.265Z,38.50
2023-05-20T13:20:00.364Z,38.40
2023-05-20T13:22:27.397Z,38.40
2023-05-20T13:24:54.402Z,38.40
2023-05-20T13:27:21.462Z,38.50
2023-05-20T13:29:48.480Z,38.60
2023-05-20T13:32:15.768Z,38.70
2023-05-20T13:34:42.768Z,38.80
2023-05-20T13:37:09.855Z,38.90
2023-05-20T13:39:37.694Z,39.10
2023-05-20T13:42:06.104Z,39.30
2023-05-20T13:44:34.008Z,39.50
2023-05-20T13:47:01.271Z,39.60
2023-05-20T13:49:28.346Z,39.70
2023-05-20T13:51:55.487Z,39.70
2023-05-20T13:54:22.658Z,39.70
2023-05-20T13:56:49.693Z,39.70
2023-05-20T13:59:16.866Z,39.70
2023-05-20T14:01:45.313Z,39.70
2023-05-20T14:04:12.973Z,39.60
2023-05-20T14:06:40.540Z,39.60
2023-05-20T14:09:11.068Z,39.60
2023-05-20T14:11:38.096Z,39.60
2023-05-20T14:14:05.255Z,39.40
2023-05-20T14:16:33.350Z,39.30
2023-05-20T14:19:00.947Z,39.10
2023-05-20T14:21:27.957Z,39.00
2023-05-20T14:23:54.940Z,38.90
2023-05-20T14:26:21.874Z,38.80
2023-05-20T14:28:49.143Z,38.70
2023-05-20T14:31:16.422Z,38.50
2023-05-20T14:33:43.683Z,38.30
2023-05-20T14:36:13.775Z,38.20
2023-05-20T14:38:40.734Z,38.10
2023-05-20T14:41:07.846Z,38.00
2023-05-20T14:43:34.955Z,37.80
2023-05-20T14:46:03.212Z,37.70
2023-05-20T14:48:30.474Z,37.40
2023-05-20T14:50:57.628Z,37.30
2023-05-20T14:53:24.758Z,37.20
2023-05-20T14:55:51.904Z,37.00
2023-05-20T14:58:18.859Z,36.90
2023-05-20T15:00:46.132Z,36.80
2023-05-20T15:03:13.469Z,36.70
2023-05-20T15:05:42.090Z,36.60
2023-05-20T15:08:09.176Z,36.50
2023-05-20T15:10:36.553Z,36.40
2023-05-20T15:13:03.697Z,36.20
2023-05-20T15:15:30.857Z,36.10
2023-05-20T15:17:58.192Z,36.00
2023-05-20T15:20:25.292Z,35.90
2023-05-20T15:22:53.687Z,35.70
2023-05-20T15:25:20.763Z,35.50
2023-05-20T15:27:47.703Z,35.30
2023-05-20T15:30:15.548Z,35.10
2023-05-20T15:32:42.825Z,34.80
2023-05-20T15:35:10.777Z,34.60
2023-05-20T15:37:37.793Z,34.40
2023-05-20T15:40:05.320Z,34.10
2023-05-20T15:42:32.397Z,33.90
2023-05-20T15:44:59.408Z,33.70
2023-05-20T15:47:26.505Z,33.40
2023-05-20T15:49:54.504Z,33.20
2023-05-20T15:52:21.690Z,33.00
2023-05-20T15:54:48.925Z,32.80
2023-05-20T15:57:16.074Z,32.60
2023-05-20T15:59:43.235Z,32.40
2023-05-20T16:02:10.531Z,32.20
2023-05-20T16:04:37.720Z,31.80
2023-05-20T16:07:04.920Z,31.90
2023-05-20T16:09:31.977Z,31.80
2023-05-20T16:11:59.019Z,31.70
2023-05-20T16:14:26.076Z,31.50
2023-05-20T16:16:53.152Z,31.40
2023-05-20T16:19:20.335Z,31.30
2023-05-20T16:21:47.634Z,31.10
2023-05-20T16:24:15.602Z,31.00
2023-05-20T16:26:43.028Z,30.80
2023-05-20T16:29:10.178Z,30.70
2023-05-20T16:31:37.352Z,30.50
2023-05-20T16:34:04.620Z,30.30
2023-05-20T16:36:32.185Z,30.20
2023-05-20T16:38:59.387Z,30.00
2023-05-20T16:41:26.689Z,29.90
2023-05-20T16:43:53.732Z,29.70
2023-05-20T16:46:21.576Z,29.50
2023-05-20T16:48:49.195Z,29.40
2023-05-20T16:51:16.353Z,29.00
2023-05-20T16:53:43.339Z,28.70
2023-05-20T16:56:10.426Z,28.40
2023-05-20T16:58:37.670Z,28.10
2023-05-20T17:01:04.768Z,27.90
2023-05-20T17:03:35.666Z,27.70
2023-05-20T17:06:02.922Z,27.40
2023-05-20T17:08:30.186Z,27.20
2023-05-20T17:10:59.357Z,27.10
2023-05-20T17:13:26.540Z,26.70
2023-05-20T17:15:53.479Z,26.50
2023-05-20T17:18:20.652Z,26.30
2023-05-20T17:20:47.806Z,26.20
2023-05-20T17:23:15.226Z,26.00
2023-05-20T17:25:42.433Z,25.90
2023-05-20T17:28:09.633Z,25.80
2023-05-20T17:30:36.981Z,25.60
2023-05-20T17:33:04.855Z,25.40
2023-05-20T17:35:31.957Z,25.30
2023-05-20T17:38:12.430Z,25.20
2023-05-20T17:40:47.090Z,25.10
2023-05-20T17:43:14.613Z,25.10
2023-05-20T17:45:41.846Z,24.90
2023-05-20T17:48:20.476Z,24.80
2023-05-20T17:50:48.002Z,24.70
2023-05-20T17:53:17.887Z,24.50
2023-05-20T17:55:47.699Z,24.50
2023-05-20T17:58:18.784Z,24.50
2023-05-20T18:00:45.979Z,24.30
2023-05-20T18:03:13.928Z,24.20
2023-05-20T18:05:41.365Z,24.20
2023-05-20T18:08:08.735Z,24.10
2023-05-20T18:10:36.143Z,24.00
2023-05-20T18:13:03.348Z,23.90
2023-05-20T18:15:30.424Z,23.80
2023-05-20T18:17:57.384Z,23.90
2023-05-20T18:20:24.766Z,23.80
2023-05-20T18:22:58.068Z,23.70
2023-05-20T18:25:26.146Z,23.70
2023-05-20T18:27:53.314Z,23.70
2023-05-20T18:30:20.521Z,23.40
2023-05-20T18:32:47.728Z,23.60
2023-05-20T18:35:14.796Z,23.50
2023-05-20T18:37:41.800Z,23.40
2023-05-20T18:40:09.512Z,23.40
2023-05-20T18:42:37.150Z,23.40
2023-05-20T18:45:04.704Z,23.30
2023-05-20T18:47:31.948Z,23.20
2023-05-20T18:49:59.055Z,23.20
2023-05-20T18:52:26.225Z,23.10
2023-05-20T18:54:53.445Z,23.10
2023-05-20T18:57:22.504Z,23.00
2023-05-20T18:59:49.836Z,23.00
2023-05-20T19:02:17.541Z,22.90
2023-05-20T19:04:44.828Z,22.90
2023-05-20T19:07:11.986Z,22.80
2023-05-20T19:09:39.148Z,22.90
2023-05-20T19:12:06.832Z,22.70
2023-05-20T19:14:33.829Z,22.70
2023-05-20T19:17:01.302Z,22.60
2023-05-20T19:19:28.497Z,22.40
2023-05-20T19:21:55.891Z,22.70
2023-05-20T19:24:23.662Z,22.40
2023-05-20T19:26:51.525Z,22.20
2023-05-20T19:29:18.648Z,22.30
2023-05-20T19:31:45.997Z,22.40
2023-05-20T19:34:13.075Z,22.20
2023-05-20T19:36:42.791Z,22.10
2023-05-20T19:39:10.392Z,22.10
2023-05-20T19:41:40.714Z,22.20
2023-05-20T19:44:11.728Z,21.90
2023-05-20T19:46:38.943Z,21.90
2023-05-20T19:49:06.221Z,21.80
2023-05-20T19:51:33.466Z,21.80
2023-05-20T19:54:00.675Z,21.80
2023-05-20T19:56:27.817Z,21.60
2023-05-20T19:58:54.858Z,21.60
2023-05-20T20:01:21.884Z,21.50
2023-05-20T20:03:48.914Z,21.40
2023-05-20T20:06:15.950Z,21.40
2023-05-20T20:08:43.002Z,21.40
2023-05-20T20:11:09.968Z,21.20
2023-05-20T20:13:37.037Z,21.30
2023-05-20T20:16:04.341Z,21.00
2023-05-20T20:18:32.837Z,21.00
2023-05-20T20:21:00.446Z,21.00
2023-05-20T20:23:27.525Z,20.90
2023-05-20T20:25:54.548Z,20.80
2023-05-20T20:28:21.703Z,20.80
2023-05-20T20:30:48.875Z,20.80
2023-05-20T20:33:15.962Z,20.70
2023-05-20T20:35:43.024Z,20.70
2023-05-20T20:38:10.555Z,20.70
2023-05-20T20:40:39.560Z,20.60
2023-05-20T20:43:07.285Z,20.50
2023-05-20T20:45:36.919Z,20.60
2023-05-20T20:48:08.256Z,20.80
2023-05-20T20:50:36.520Z,20.50
2023-05-20T20:53:03.674Z,20.40
2023-05-20T20:55:30.659Z,20.40
2023-05-20T20:57:58.341Z,20.40
2023-05-20T21:00:26.865Z,20.20
2023-05-20T21:02:53.925Z,20.30
2023-05-20T21:05:21.456Z,20.20
2023-05-20T21:07:52.542Z,20.40
2023-05-20T21:10:20.689Z,20.10
2023-05-20T21:12:47.695Z,20.10
2023-05-20T21:15:15.090Z,20.00
2023-05-20T21:17:42.222Z,20.00
2023-05-20T21:20:10.498Z,19.90
2023-05-20T21:22:37.909Z,19.90
2023-05-20T21:25:06.097Z,19.90
2023-05-20T21:27:33.096Z,19.80
2023-05-20T21:30:00.177Z,19.90
2023-05-20T21:32:27.139Z,20.00
2023-05-20T21:34:55.312Z,19.80
2023-05-20T21:37:23.827Z,19.70
2023-05-20T21:39:50.982Z,19.90
2023-05-20T21:42:18.072Z,19.80
2023-05-20T21:44:45.090Z,19.60
2023-05-20T21:47:12.097Z,19.60
2023-05-20T21:49:39.160Z,19.60
2023-05-20T21:52:06.609Z,19.70
2023-05-20T21:54:33.685Z,19.50
2023-05-20T21:57:02.505Z,19.40
2023-05-20T21:59:29.516Z,19.60
2023-05-20T22:01:58.519Z,19.30
2023-05-20T22:04:28.627Z,19.40
2023-05-20T22:06:57.053Z,19.30
2023-05-20T22:09:24.727Z,19.30
2023-05-20T22:11:52.677Z,19.20
2023-05-20T22:14:19.732Z,19.40
2023-05-20T22:16:48.375Z,19.20
2023-05-20T22:19:16.692Z,19.30
2023-05-20T22:21:50.572Z,19.10
2023-05-20T22:24:18.251Z,19.10
2023-05-20T22:26:45.409Z,19.40
2023-05-20T22:29:12.482Z,19.10
2023-05-20T22:31:39.683Z,19.30
2023-05-20T22:34:06.746Z,19.10
2023-05-20T22:36:34.152Z,19.10
2023-05-20T22:39:03.093Z,19.10
2023-05-20T22:41:30.349Z,19.00
2023-05-20T22:43:57.349Z,19.00
2023-05-20T22:46:25.116Z,19.00
2023-05-20T22:48:53.079Z,19.00
2023-05-20T22:51:21.599Z,18.90
2023-05-20T22:53:49.103Z,18.90
2023-05-20T22:56:16.531Z,19.10
2023-05-20T22:58:43.846Z,18.90
2023-05-20T23:01:13.565Z,18.90
2023-05-20T23:03:40.738Z,18.80
2023-05-20T23:06:07.821Z,19.00
2023-05-20T23:08:34.991Z,18.80
2023-05-20T23:11:02.135Z,18.80
2023-05-20T23:13:29.120Z,18.80
2023-05-20T23:15:56.152Z,18.70
2023-05-20T23:18:23.430Z,18.60
2023-05-20T23:20:50.438Z,18.60
2023-05-20T23:23:20.787Z,18.60
2023-05-20T23:25:55.098Z,18.60
2023-05-20T23:28:22.197Z,18.60
2023-05-20T23:30:49.338Z,18.60
2023-05-20T23:33:17.319Z,18.50
2023-05-20T23:35:44.876Z,18.60
2023-05-20T23:38:11.829Z,18.50
2023-05-20T23:40:38.890Z,18.60
2023-05-20T23:43:05.919Z,18.50
2023-05-20T23:45:32.958Z,18.40
2023-05-20T23:48:01.331Z,18.40
2023-05-20T23:50:28.505Z,18.40
2023-05-20T23:52:55.572Z,18.40
2023-05-20T23:55:22.481Z,18.30
2023-05-20T23:57:49.883Z,18.50
